Time;durP1;ratioP1;P1;durP2;ratioP2;P2;SDS_P1;SDS_P2;PMS_P1;PMS_P2;Temp;Humidity;BMP_temperature;BMP_pressure;BME280_temperature;BME280_humidity;BME280_pressure;Samples;Min_cycle;Max_cycle;Signal;HPM_P1;HPM_P2
2021/03/09 00:00:06;;;;;;;16.52;7.65;;;2.80;99.90;;;;;;5035533;28;20225;-83
2021/03/09 00:02:32;;;;;;;13.63;7.95;;;2.70;99.90;;;;;;5035067;28;20214;-83
2021/03/09 00:04:59;;;;;;;13.98;7.80;;;2.70;99.90;;;;;;5028194;28;20229;-82
2021/03/09 00:07:26;;;;;;;14.43;7.50;;;2.70;99.90;;;;;;5027346;28;20199;-82
2021/03/09 00:09:52;;;;;;;10.27;6.28;;;2.70;99.90;;;;;;5035239;28;20195;-82
2021/03/09 00:12:22;;;;;;;15.20;8.02;;;2.90;99.90;;;;;;5026159;28;20706;-83
2021/03/09 00:14:48;;;;;;;14.05;8.52;;;2.90;99.90;;;;;;5017073;28;20312;-82
2021/03/09 00:17:15;;;;;;;12.43;6.53;;;3.00;99.90;;;;;;5034725;28;20230;-83
2021/03/09 00:19:41;;;;;;;11.88;7.63;;;2.80;99.90;;;;;;5042985;28;20206;-82
2021/03/09 00:22:07;;;;;;;15.23;8.35;;;2.70;99.90;;;;;;5027912;28;20716;-82
2021/03/09 00:24:34;;;;;;;11.10;6.70;;;2.70;99.90;;;;;;5015275;28;20246;-81
2021/03/09 00:27:01;;;;;;;14.50;7.85;;;2.50;99.90;;;;;;5017629;28;20227;-82
2021/03/09 00:29:27;;;;;;;12.35;7.82;;;2.60;99.90;;;;;;5021687;28;20219;-82
2021/03/09 00:31:54;;;;;;;15.07;7.90;;;2.70;99.90;;;;;;5021455;28;20233;-83
2021/03/09 00:34:20;;;;;;;14.70;7.18;;;2.80;99.90;;;;;;5044219;28;20260;-83
2021/03/09 00:36:46;;;;;;;15.75;8.40;;;2.40;99.90;;;;;;5036148;28;20207;-82
2021/03/09 00:39:13;;;;;;;12.02;7.18;;;2.70;99.90;;;;;;5035558;28;20725;-82
2021/03/09 00:41:40;;;;;;;11.80;7.35;;;2.60;99.90;;;;;;5034721;28;20238;-83
2021/03/09 00:44:06;;;;;;;14.27;7.25;;;2.60;99.90;;;;;;5035282;28;20227;-84
2021/03/09 00:46:33;;;;;;;13.07;7.18;;;2.50;99.90;;;;;;5034620;28;20256;-82
2021/03/09 00:48:59;;;;;;;12.43;7.03;;;2.30;99.90;;;;;;5021058;28;20255;-83
2021/03/09 00:51:25;;;;;;;11.13;6.65;;;2.50;99.90;;;;;;5023376;28;20239;-82
2021/03/09 00:53:52;;;;;;;10.40;6.95;;;2.40;99.90;;;;;;5039673;28;20632;-83
2021/03/09 00:56:18;;;;;;;13.57;7.65;;;2.50;99.90;;;;;;5040144;28;20203;-83
2021/03/09 00:58:45;;;;;;;11.00;7.20;;;2.50;99.90;;;;;;5033832;28;20290;-82
2021/03/09 01:01:12;;;;;;;13.50;7.47;;;2.30;99.90;;;;;;5038818;28;20234;-83
2021/03/09 01:03:38;;;;;;;17.17;8.00;;;2.40;99.90;;;;;;5040368;28;20209;-83
2021/03/09 01:06:05;;;;;;;11.52;6.85;;;2.40;99.90;;;;;;5042356;28;20230;-82
2021/03/09 01:08:31;;;;;;;12.60;7.03;;;2.30;99.90;;;;;;5040611;28;20227;-83
2021/03/09 01:10:58;;;;;;;11.57;6.55;;;2.40;99.90;;;;;;5039455;28;20234;-83
2021/03/09 01:13:24;;;;;;;10.80;7.05;;;2.60;99.90;;;;;;5035168;28;20212;-82
2021/03/09 01:15:51;;;;;;;11.02;7.18;;;2.20;99.90;;;;;;5022015;28;20215;-83
2021/03/09 01:18:18;;;;;;;11.32;7.18;;;2.30;99.90;;;;;;5037058;28;20210;-83
2021/03/09 01:20:44;;;;;;;12.35;7.03;;;2.20;99.90;;;;;;5032950;28;20242;-80
2021/03/09 01:23:11;;;;;;;13.50;6.88;;;2.30;99.90;;;;;;5033782;28;20982;-81
2021/03/09 01:25:37;;;;;;;12.73;7.72;;;2.30;99.90;;;;;;5040433;28;20330;-83
2021/03/09 01:28:04;;;;;;;15.40;7.60;;;2.30;99.90;;;;;;5039351;28;20207;-83
2021/03/09 01:30:30;;;;;;;12.50;6.78;;;2.10;99.90;;;;;;5021258;28;20243;-82
2021/03/09 01:32:57;;;;;;;11.52;6.97;;;2.30;99.90;;;;;;5040544;28;20297;-83
2021/03/09 01:35:24;;;;;;;13.38;8.45;;;2.20;99.90;;;;;;5039308;28;20221;-83
2021/03/09 01:37:50;;;;;;;12.00;7.65;;;2.20;99.90;;;;;;5047790;28;20242;-82
2021/03/09 01:40:17;;;;;;;11.90;7.20;;;2.40;99.90;;;;;;5031987;28;20219;-82
2021/03/09 01:42:44;;;;;;;12.07;7.75;;;2.20;99.90;;;;;;5047954;28;20296;-83
2021/03/09 01:45:11;;;;;;;14.25;8.05;;;2.30;99.90;;;;;;5039966;28;20425;-83
2021/03/09 01:47:41;;;;;;;12.70;7.35;;;2.30;99.90;;;;;;5027970;28;20214;-82
2021/03/09 01:50:11;;;;;;;16.13;7.47;;;2.20;99.90;;;;;;5032258;28;20196;-83
2021/03/09 01:52:39;;;;;;;12.43;8.10;;;2.40;99.90;;;;;;5037523;28;20223;-83
2021/03/09 01:55:07;;;;;;;10.43;7.35;;;2.30;99.90;;;;;;5052643;28;20684;-83
2021/03/09 01:57:34;;;;;;;12.25;7.60;;;2.30;99.90;;;;;;5052631;28;20203;-81
2021/03/09 02:00:03;;;;;;;14.10;8.90;;;2.10;99.90;;;;;;5050057;28;20352;-81
2021/03/09 02:02:30;;;;;;;15.15;7.55;;;2.10;99.90;;;;;;5049349;28;20199;-82
2021/03/09 02:04:56;;;;;;;18.48;9.52;;;2.40;99.90;;;;;;5050361;28;20207;-81
2021/03/09 02:07:24;;;;;;;14.75;7.40;;;2.30;99.90;;;;;;5045824;28;20286;-82
2021/03/09 02:09:50;;;;;;;12.63;7.97;;;2.20;99.90;;;;;;5034826;28;20213;-81
2021/03/09 02:12:23;;;;;;;15.00;9.13;;;2.20;99.90;;;;;;5015807;28;20322;-82
2021/03/09 02:15:02;;;;;;;13.93;8.48;;;2.20;99.90;;;;;;5025491;28;20215;-82
2021/03/09 02:17:33;;;;;;;13.15;8.10;;;2.20;99.90;;;;;;5032070;28;20188;-82
2021/03/09 02:20:44;;;;;;;11.35;6.75;;;2.30;99.90;;;;;;5026744;28;20249;-82
2021/03/09 02:23:29;;;;;;;13.35;8.57;;;2.10;99.90;;;;;;5037122;28;20198;-82
2021/03/09 02:26:26;;;;;;;10.85;7.43;;;2.10;99.90;;;;;;5017722;28;20211;-82
2021/03/09 02:29:02;;;;;;;13.60;7.57;;;1.90;99.90;;;;;;5018219;28;20231;-82
2021/03/09 02:31:31;;;;;;;11.27;7.50;;;1.90;99.90;;;;;;5036922;28;20574;-82
2021/03/09 02:34:05;;;;;;;12.55;7.85;;;1.90;99.90;;;;;;5038369;28;20210;-84
2021/03/09 02:36:32;;;;;;;12.77;7.70;;;2.00;99.90;;;;;;5046466;28;20199;-81
2021/03/09 02:39:03;;;;;;;12.05;7.90;;;1.90;99.90;;;;;;5028446;28;20209;-83
2021/03/09 02:41:30;;;;;;;12.57;7.40;;;1.80;99.90;;;;;;5018589;28;20310;-83
2021/03/09 02:43:58;;;;;;;12.40;7.70;;;1.80;99.90;;;;;;5021035;28;20536;-81
2021/03/09 02:46:29;;;;;;;12.88;8.85;;;2.00;99.90;;;;;;5038166;28;20233;-81
2021/03/09 02:48:57;;;;;;;13.48;7.80;;;1.80;99.90;;;;;;5040347;28;20220;-82
2021/03/09 02:51:26;;;;;;;15.18;8.20;;;1.90;99.90;;;;;;5017305;28;20282;-83
2021/03/09 02:53:55;;;;;;;14.68;7.57;;;2.10;99.90;;;;;;5030693;28;20218;-82
2021/03/09 02:56:23;;;;;;;16.42;8.93;;;1.70;99.90;;;;;;5017659;28;20204;-82
2021/03/09 02:58:52;;;;;;;13.10;8.00;;;1.90;99.90;;;;;;5016874;28;20638;-82
2021/03/09 03:01:21;;;;;;;11.02;7.15;;;2.00;99.90;;;;;;5033598;28;20227;-82
2021/03/09 03:03:48;;;;;;;19.10;8.73;;;2.00;99.90;;;;;;5037772;28;20203;-83
2021/03/09 03:06:16;;;;;;;15.88;8.18;;;1.80;99.90;;;;;;5036729;28;20211;-82
2021/03/09 03:08:44;;;;;;;12.75;7.55;;;1.90;99.90;;;;;;5036316;28;20210;-83
2021/03/09 03:11:11;;;;;;;14.23;8.40;;;1.90;99.90;;;;;;5035574;28;20317;-82
2021/03/09 03:13:40;;;;;;;12.23;7.47;;;1.80;99.90;;;;;;5026424;28;20196;-83
2021/03/09 03:16:08;;;;;;;14.45;9.25;;;2.00;99.90;;;;;;5019872;28;20197;-81
2021/03/09 03:18:38;;;;;;;14.07;8.50;;;1.90;99.90;;;;;;5033402;28;20203;-82
2021/03/09 03:21:08;;;;;;;10.98;6.90;;;1.80;99.90;;;;;;5018803;28;20721;-82
2021/03/09 03:23:36;;;;;;;14.95;8.57;;;1.80;99.90;;;;;;5037458;28;20202;-82
2021/03/09 03:26:05;;;;;;;12.88;8.45;;;1.70;99.90;;;;;;5040622;28;20640;-82
2021/03/09 03:28:34;;;;;;;12.27;8.07;;;1.70;99.90;;;;;;5023705;28;20271;-82
2021/03/09 03:31:01;;;;;;;15.65;8.90;;;1.70;99.90;;;;;;5015417;28;20286;-82
2021/03/09 03:33:28;;;;;;;14.57;8.45;;;1.60;99.90;;;;;;5027943;28;20223;-82
2021/03/09 03:35:54;;;;;;;12.57;8.70;;;1.50;99.90;;;;;;5016625;28;20271;-82
2021/03/09 03:38:21;;;;;;;14.43;9.13;;;1.60;99.90;;;;;;5018269;28;20231;-83
2021/03/09 03:40:49;;;;;;;13.20;8.63;;;1.50;99.90;;;;;;5026333;28;20222;-82
2021/03/09 03:43:15;;;;;;;16.40;9.57;;;1.50;99.90;;;;;;5023145;28;20200;-82
2021/03/09 03:45:41;;;;;;;14.82;9.25;;;1.60;99.90;;;;;;5021930;28;20253;-82
2021/03/09 03:48:08;;;;;;;13.38;8.27;;;1.50;99.90;;;;;;5042907;28;20290;-83
2021/03/09 03:50:35;;;;;;;15.80;7.95;;;1.70;99.90;;;;;;5037901;28;20227;-82
2021/03/09 03:53:10;;;;;;;16.10;8.90;;;1.60;99.90;;;;;;5028213;28;20318;-83
2021/03/09 03:55:53;;;;;;;13.52;8.65;;;1.70;99.90;;;;;;5018894;28;20200;-83
2021/03/09 03:58:27;;;;;;;13.27;8.65;;;1.80;99.90;;;;;;5016940;28;20655;-82
2021/03/09 04:00:54;;;;;;;15.27;9.50;;;1.80;99.90;;;;;;5017306;28;20311;-82
2021/03/09 04:03:21;;;;;;;13.75;8.75;;;1.80;99.90;;;;;;5023685;28;20223;-83
2021/03/09 04:05:49;;;;;;;14.77;8.82;;;1.50;99.90;;;;;;5024410;28;20282;-83
2021/03/09 04:08:17;;;;;;;13.15;8.38;;;1.60;99.90;;;;;;5032881;28;20231;-83
2021/03/09 04:10:46;;;;;;;13.10;9.13;;;1.50;99.90;;;;;;5030178;28;20603;-83
2021/03/09 04:13:15;;;;;;;15.65;8.85;;;1.60;99.90;;;;;;5018225;28;20227;-83
2021/03/09 04:15:41;;;;;;;15.43;9.52;;;1.60;99.90;;;;;;5038783;28;20207;-83
2021/03/09 04:18:09;;;;;;;13.93;8.38;;;1.50;99.90;;;;;;5037027;28;20246;-83
2021/03/09 04:20:36;;;;;;;14.60;8.07;;;1.60;99.90;;;;;;5039275;28;20242;-83
2021/03/09 04:23:03;;;;;;;14.80;9.18;;;1.60;99.90;;;;;;5030312;28;20286;-82
2021/03/09 04:25:30;;;;;;;15.38;9.75;;;1.50;99.90;;;;;;5034579;28;20203;-82
2021/03/09 04:27:57;;;;;;;15.57;9.00;;;1.50;99.90;;;;;;5037002;28;20235;-83
2021/03/09 04:30:25;;;;;;;12.38;8.18;;;1.60;99.90;;;;;;5049927;28;20231;-82
2021/03/09 04:32:52;;;;;;;14.57;8.57;;;1.30;99.90;;;;;;5049222;28;20223;-82
2021/03/09 04:35:19;;;;;;;16.52;9.38;;;1.50;99.90;;;;;;5044875;28;20207;-82
2021/03/09 04:37:46;;;;;;;14.68;8.73;;;1.50;99.90;;;;;;5029086;28;20211;-83
2021/03/09 04:40:14;;;;;;;16.38;9.70;;;1.50;99.90;;;;;;5035485;28;20219;-83
2021/03/09 04:42:40;;;;;;;14.50;9.35;;;1.70;99.90;;;;;;5028135;28;20239;-83
2021/03/09 04:45:08;;;;;;;16.38;9.40;;;1.50;99.90;;;;;;5048189;28;20199;-83
2021/03/09 04:47:36;;;;;;;18.67;8.90;;;1.60;99.90;;;;;;5045162;28;20231;-82
2021/03/09 04:50:05;;;;;;;17.52;10.13;;;1.50;99.90;;;;;;5037381;28;20223;-82
2021/03/09 04:52:31;;;;;;;15.88;9.43;;;1.60;99.90;;;;;;5051077;28;20254;-83
2021/03/09 04:54:58;;;;;;;15.15;10.48;;;1.50;99.90;;;;;;5027287;28;20264;-83
2021/03/09 04:57:38;;;;;;;14.52;10.00;;;1.50;99.90;;;;;;5020628;28;20215;-83
2021/03/09 05:00:07;;;;;;;13.68;9.02;;;1.60;99.90;;;;;;5033223;28;20207;-83
2021/03/09 05:02:35;;;;;;;17.65;9.82;;;1.40;99.90;;;;;;5024829;28;20211;-83
2021/03/09 05:05:01;;;;;;;18.40;10.25;;;1.20;99.90;;;;;;5020877;28;20287;-83
2021/03/09 05:07:28;;;;;;;15.95;9.10;;;1.10;99.90;;;;;;5028994;28;20238;-84
2021/03/09 05:09:54;;;;;;;15.60;9.65;;;1.40;99.90;;;;;;5028802;28;20231;-83
2021/03/09 05:12:20;;;;;;;14.15;9.75;;;1.20;99.90;;;;;;5024556;28;20224;-83
2021/03/09 05:14:47;;;;;;;18.30;9.65;;;1.30;99.90;;;;;;5043839;28;20229;-83
2021/03/09 05:17:13;;;;;;;15.32;8.15;;;1.20;99.90;;;;;;5046750;28;20424;-83
2021/03/09 05:19:41;;;;;;;17.00;11.15;;;1.10;99.90;;;;;;5038299;28;20235;-83
2021/03/09 05:22:07;;;;;;;14.98;9.43;;;1.10;99.90;;;;;;5027296;28;20290;-83
2021/03/09 05:24:33;;;;;;;16.00;10.40;;;1.20;99.90;;;;;;5034211;28;20765;-82
2021/03/09 05:27:00;;;;;;;16.80;9.88;;;1.20;99.90;;;;;;5045566;28;20391;-84
2021/03/09 05:29:26;;;;;;;14.35;10.02;;;1.20;99.90;;;;;;5034125;28;20752;-82
2021/03/09 05:31:53;;;;;;;17.00;9.70;;;1.20;99.90;;;;;;5018975;28;20303;-82
2021/03/09 05:34:19;;;;;;;22.60;10.70;;;1.20;99.90;;;;;;5020308;28;20353;-82
2021/03/09 05:36:46;;;;;;;18.42;11.20;;;1.10;99.90;;;;;;5037373;28;20616;-82
2021/03/09 05:39:13;;;;;;;22.30;11.80;;;1.00;99.90;;;;;;5036611;28;20220;-82
2021/03/09 05:41:39;;;;;;;15.93;10.77;;;1.30;99.90;;;;;;5018169;28;20574;-82
2021/03/09 05:44:07;;;;;;;16.58;9.70;;;1.10;99.90;;;;;;5017679;28;20298;-82
2021/03/09 05:46:34;;;;;;;15.90;10.35;;;1.10;99.90;;;;;;5018335;28;20397;-82
2021/03/09 05:49:00;;;;;;;20.10;10.75;;;1.30;99.90;;;;;;5028027;28;20196;-82
2021/03/09 05:51:27;;;;;;;17.95;10.30;;;1.40;99.90;;;;;;5029097;28;20349;-82
2021/03/09 05:53:54;;;;;;;17.65;10.50;;;1.40;99.90;;;;;;5037984;28;20641;-82
2021/03/09 05:56:22;;;;;;;17.85;10.35;;;1.10;99.90;;;;;;5038341;28;20693;-83
2021/03/09 05:58:49;;;;;;;17.30;10.15;;;1.30;99.90;;;;;;5038163;28;20218;-84
2021/03/09 06:01:16;;;;;;;14.98;9.82;;;1.10;99.90;;;;;;5018423;28;20220;-82
2021/03/09 06:03:42;;;;;;;15.20;9.55;;;1.40;99.90;;;;;;5019137;28;20207;-82
2021/03/09 06:06:09;;;;;;;16.60;10.38;;;1.30;99.90;;;;;;5036357;28;20203;-81
2021/03/09 06:08:35;;;;;;;19.08;11.43;;;1.40;99.90;;;;;;5038886;28;20866;-83
2021/03/09 06:11:16;;;;;;;13.57;9.85;;;1.20;99.90;;;;;;5038304;28;20289;-82
2021/03/09 06:13:42;;;;;;;17.40;9.98;;;1.20;99.90;;;;;;5026455;28;20226;-83
2021/03/09 06:16:09;;;;;;;14.95;9.85;;;1.10;99.90;;;;;;5038192;28;20697;-82
2021/03/09 06:18:35;;;;;;;15.07;9.88;;;1.40;99.90;;;;;;5035622;28;20203;-82
2021/03/09 06:21:10;;;;;;;17.88;11.05;;;1.40;99.90;;;;;;5041934;28;20223;-83
2021/03/09 06:23:36;;;;;;;19.77;11.52;;;1.30;99.90;;;;;;5039264;28;20199;-82
2021/03/09 06:26:03;;;;;;;20.45;12.00;;;1.20;99.90;;;;;;5030880;28;20207;-83
2021/03/09 06:28:31;;;;;;;18.63;12.30;;;1.40;99.90;;;;;;5018638;28;20208;-80
2021/03/09 06:31:00;;;;;;;21.73;11.40;;;1.10;99.90;;;;;;5023300;28;20250;-83
2021/03/09 06:33:31;;;;;;;21.98;12.00;;;1.40;99.90;;;;;;5037815;28;20732;-82
2021/03/09 06:36:00;;;;;;;21.60;12.18;;;1.50;99.90;;;;;;5032712;28;20208;-82
2021/03/09 06:38:28;;;;;;;16.98;11.40;;;1.30;99.90;;;;;;5018144;28;20580;-82
2021/03/09 06:41:12;;;;;;;19.10;10.60;;;1.50;99.90;;;;;;5019485;28;20805;-81
2021/03/09 06:43:40;;;;;;;20.75;11.13;;;1.50;99.90;;;;;;5027376;28;20884;-83
2021/03/09 06:46:15;;;;;;;18.88;12.45;;;1.60;99.90;;;;;;5033465;28;20203;-81
2021/03/09 06:48:42;;;;;;;20.48;11.00;;;1.60;99.90;;;;;;5024883;28;20191;-83
2021/03/09 06:51:27;;;;;;;19.35;11.75;;;1.50;99.90;;;;;;5037736;28;20226;-81
2021/03/09 06:54:12;;;;;;;16.95;11.80;;;1.70;99.90;;;;;;5034116;28;20241;-83
2021/03/09 06:56:39;;;;;;;21.17;11.60;;;1.60;99.90;;;;;;5035864;28;20226;-82
2021/03/09 06:59:21;;;;;;;20.30;12.60;;;1.80;99.90;;;;;;5018038;28;20291;-83
2021/03/09 07:02:05;;;;;;;17.33;11.48;;;1.80;99.90;;;;;;5029570;28;20583;-82
2021/03/09 07:04:31;;;;;;;19.50;13.10;;;1.80;99.90;;;;;;5038039;28;20203;-81
2021/03/09 07:06:58;;;;;;;18.23;11.50;;;1.90;99.90;;;;;;5023146;28;20281;-82
2021/03/09 07:09:24;;;;;;;22.27;12.10;;;1.80;99.90;;;;;;5017695;28;20204;-82
2021/03/09 07:11:51;;;;;;;20.05;12.82;;;2.00;99.90;;;;;;5018731;28;20224;-81
2021/03/09 07:14:19;;;;;;;19.70;11.55;;;1.90;99.90;;;;;;5023055;28;20212;-81
2021/03/09 07:16:48;;;;;;;20.52;12.88;;;1.90;99.90;;;;;;5037584;28;20319;-83
2021/03/09 07:19:21;;;;;;;23.75;12.38;;;2.20;99.90;;;;;;5036555;28;20261;-84
2021/03/09 07:21:48;;;;;;;20.40;11.65;;;2.20;99.90;;;;;;5017722;28;20232;-84
2021/03/09 07:24:17;;;;;;;18.02;11.10;;;2.20;99.90;;;;;;5044191;28;20207;-83
2021/03/09 07:26:47;;;;;;;17.75;12.10;;;2.50;99.90;;;;;;5033065;28;20230;-83
2021/03/09 07:29:16;;;;;;;21.02;12.45;;;2.30;99.90;;;;;;5039621;28;20211;-83
2021/03/09 07:31:48;;;;;;;21.08;12.40;;;2.30;99.90;;;;;;5036600;28;20290;-83
2021/03/09 07:34:15;;;;;;;20.13;12.52;;;2.40;99.90;;;;;;5031173;28;20264;-82
2021/03/09 07:36:42;;;;;;;21.25;12.73;;;2.70;99.90;;;;;;5027572;23;20528;-82
2021/03/09 07:39:09;;;;;;;22.95;11.98;;;2.70;99.90;;;;;;4997961;28;20248;-81
2021/03/09 07:41:36;;;;;;;18.58;13.38;;;2.90;99.90;;;;;;4980917;28;20365;-81
2021/03/09 07:44:03;;;;;;;21.58;14.30;;;2.80;99.90;;;;;;5000796;28;20220;-81
2021/03/09 07:46:30;;;;;;;20.10;12.68;;;3.10;99.90;;;;;;4999529;28;20236;-80
2021/03/09 07:48:58;;;;;;;18.77;12.73;;;3.20;99.90;;;;;;4990499;28;20287;-80
2021/03/09 07:51:25;;;;;;;21.88;13.65;;;3.00;99.90;;;;;;4984066;28;20368;-80
2021/03/09 07:54:09;;;;;;;21.38;13.65;;;3.10;99.90;;;;;;4973682;28;20271;-80
2021/03/09 07:56:35;;;;;;;19.48;13.38;;;3.10;99.90;;;;;;4980063;28;20265;-80
2021/03/09 07:59:06;;;;;;;21.08;12.85;;;3.30;99.90;;;;;;4993884;28;20275;-80
2021/03/09 08:01:50;;;;;;;22.27;13.70;;;3.20;99.90;;;;;;4980537;28;20212;-81
2021/03/09 08:04:18;;;;;;;19.73;12.45;;;3.40;99.90;;;;;;4977693;28;20280;-80
2021/03/09 08:06:45;;;;;;;21.23;13.63;;;3.50;99.90;;;;;;4994486;28;20829;-81
2021/03/09 08:09:33;;;;;;;20.90;13.75;;;3.40;99.90;;;;;;5000021;28;20212;-80
2021/03/09 08:12:00;;;;;;;22.42;14.65;;;3.50;99.90;;;;;;4988209;28;20258;-80
2021/03/09 08:14:27;;;;;;;26.33;15.98;;;3.80;99.90;;;;;;4981315;28;20217;-81
2021/03/09 08:16:54;;;;;;;20.95;13.73;;;3.70;99.90;;;;;;4978365;28;20235;-81
2021/03/09 08:19:40;;;;;;;21.75;15.23;;;3.90;99.90;;;;;;4985154;28;20239;-87
2021/03/09 08:22:07;;;;;;;23.27;14.38;;;3.90;99.90;;;;;;4992352;28;20675;-81
2021/03/09 08:24:53;;;;;;;27.67;16.23;;;4.20;99.90;;;;;;4996368;28;20216;-81
2021/03/09 08:27:42;;;;;;;25.27;15.85;;;4.40;99.90;;;;;;4993715;28;20235;-82
2021/03/09 08:30:39;;;;;;;26.15;15.57;;;4.50;99.90;;;;;;4980637;28;20764;-80
2021/03/09 08:33:36;;;;;;;22.58;15.68;;;4.40;99.90;;;;;;4994476;28;20759;-80
2021/03/09 08:36:31;;;;;;;26.73;17.00;;;4.30;99.90;;;;;;4976642;28;20237;-80
2021/03/09 08:39:17;;;;;;;27.50;17.38;;;4.10;99.90;;;;;;4975044;28;20236;-81
2021/03/09 08:42:03;;;;;;;26.00;16.00;;;4.20;99.90;;;;;;4975701;28;20220;-82
2021/03/09 08:44:29;;;;;;;28.27;17.10;;;4.30;99.90;;;;;;4975357;28;20247;-81
2021/03/09 08:46:57;;;;;;;24.05;15.88;;;4.40;99.90;;;;;;4991432;28;20272;-82
2021/03/09 08:49:46;;;;;;;28.50;17.92;;;4.30;99.90;;;;;;4978054;28;20679;-81
2021/03/09 08:52:41;;;;;;;24.30;15.20;;;4.50;99.90;;;;;;4975091;28;20328;-81
2021/03/09 08:55:08;;;;;;;29.13;17.02;;;4.60;99.90;;;;;;4979069;28;20216;-80
2021/03/09 08:57:34;;;;;;;21.77;14.75;;;4.80;99.90;;;;;;4994653;28;20251;-81
2021/03/09 09:00:05;;;;;;;26.25;15.82;;;5.00;99.90;;;;;;4994866;28;20236;-81
2021/03/09 09:02:31;;;;;;;26.63;16.27;;;5.30;99.90;;;;;;4983422;28;20279;-81
2021/03/09 09:05:01;;;;;;;24.00;15.27;;;5.40;99.90;;;;;;4981985;28;20248;-81
2021/03/09 09:07:31;;;;;;;24.58;15.93;;;5.80;99.90;;;;;;4998149;28;20312;-81
2021/03/09 09:09:58;;;;;;;31.50;16.25;;;5.90;99.90;;;;;;5001108;28;20554;-81
2021/03/09 09:12:31;;;;;;;25.42;16.48;;;5.70;99.90;;;;;;4994752;28;20255;-81
2021/03/09 09:15:17;;;;;;;25.35;16.13;;;5.60;99.90;;;;;;4994749;28;20200;-81
2021/03/09 09:17:46;;;;;;;23.83;15.88;;;5.70;99.90;;;;;;4996629;28;20305;-81
2021/03/09 09:20:17;;;;;;;24.42;15.82;;;5.40;99.90;;;;;;4994717;28;20612;-81
2021/03/09 09:22:44;;;;;;;27.25;15.05;;;5.50;99.90;;;;;;4994659;28;20221;-81
2021/03/09 09:25:12;;;;;;;25.35;15.77;;;5.60;99.90;;;;;;4994414;28;20208;-82
2021/03/09 09:27:45;;;;;;;27.08;16.83;;;5.90;99.90;;;;;;4994554;28;20279;-83
2021/03/09 09:30:14;;;;;;;26.20;16.33;;;5.90;99.90;;;;;;4994206;28;20213;-83
2021/03/09 09:33:03;;;;;;;22.17;14.30;;;6.20;99.90;;;;;;4993327;28;20283;-83
2021/03/09 09:35:30;;;;;;;21.70;13.95;;;6.10;99.90;;;;;;4964995;28;603563;-82
2021/03/09 09:38:00;;;;;;;22.88;15.98;;;5.80;99.90;;;;;;5000224;28;20341;-83
2021/03/09 09:40:31;;;;;;;24.27;16.35;;;5.80;99.90;;;;;;4981273;28;20233;-83
2021/03/09 09:43:10;;;;;;;26.83;17.15;;;5.80;99.90;;;;;;4976353;28;20201;-83
2021/03/09 09:45:41;;;;;;;25.35;15.75;;;6.10;99.90;;;;;;4983984;28;20278;-84
2021/03/09 09:48:11;;;;;;;22.98;16.15;;;6.40;99.90;;;;;;4989800;28;20287;-84
2021/03/09 09:50:43;;;;;;;28.05;16.20;;;6.50;99.90;;;;;;4982665;28;20205;-83
2021/03/09 09:53:11;;;;;;;26.77;16.85;;;6.60;99.90;;;;;;4994182;28;20233;-83
2021/03/09 09:55:38;;;;;;;23.50;16.58;;;6.60;99.90;;;;;;4988641;28;20302;-82
2021/03/09 09:58:04;;;;;;;25.55;17.90;;;6.60;99.90;;;;;;4983542;28;20208;-79
2021/03/09 10:00:33;;;;;;;22.83;15.63;;;6.40;99.90;;;;;;4978709;28;20210;-80
2021/03/09 10:03:10;;;;;;;26.00;17.73;;;6.60;99.90;;;;;;4983204;28;20265;-78
2021/03/09 10:05:37;;;;;;;24.40;16.25;;;6.60;99.90;;;;;;4987583;28;20211;-79
2021/03/09 10:08:04;;;;;;;26.80;16.52;;;6.70;99.90;;;;;;4993433;28;20280;-79
2021/03/09 10:10:32;;;;;;;24.42;16.27;;;6.50;99.90;;;;;;4980392;28;20499;-76
2021/03/09 10:12:58;;;;;;;23.85;16.75;;;6.70;99.90;;;;;;4990890;28;20220;-76
2021/03/09 10:15:43;;;;;;;25.33;15.82;;;6.70;99.90;;;;;;4979975;28;20205;-76
2021/03/09 10:18:15;;;;;;;25.70;15.40;;;7.00;99.90;;;;;;4972790;28;20317;-77
2021/03/09 10:20:41;;;;;;;25.92;15.85;;;7.00;99.90;;;;;;4984609;28;20217;-77
2021/03/09 10:23:08;;;;;;;22.65;15.82;;;7.00;99.90;;;;;;4980980;28;20197;-88
2021/03/09 10:25:39;;;;;;;25.93;17.53;;;7.20;99.90;;;;;;4987226;28;20224;-86
2021/03/09 10:28:06;;;;;;;25.27;15.10;;;7.20;99.90;;;;;;4986884;28;20794;-78
2021/03/09 10:30:37;;;;;;;21.85;13.73;;;7.50;99.90;;;;;;5001424;28;20239;-80
2021/03/09 10:33:08;;;;;;;23.58;14.55;;;7.40;99.90;;;;;;4993422;28;20224;-77
2021/03/09 10:35:35;;;;;;;20.52;12.90;;;7.40;99.90;;;;;;4991551;28;20240;-75
2021/03/09 10:38:01;;;;;;;23.42;12.85;;;7.40;99.90;;;;;;4983770;28;20215;-78
2021/03/09 10:40:33;;;;;;;21.75;14.32;;;7.30;99.80;;;;;;4987114;28;20201;-79
2021/03/09 10:43:01;;;;;;;23.63;14.43;;;7.20;99.90;;;;;;4991730;28;20207;-75
2021/03/09 10:45:30;;;;;;;21.17;13.63;;;7.20;99.90;;;;;;4990534;28;20215;-75
2021/03/09 10:47:59;;;;;;;29.52;15.30;;;7.30;99.90;;;;;;4987134;28;20243;-76
2021/03/09 10:50:27;;;;;;;22.80;15.18;;;7.60;99.90;;;;;;4978446;28;20208;-76
2021/03/09 10:52:54;;;;;;;25.55;15.38;;;7.50;99.70;;;;;;4990882;28;20275;-76
2021/03/09 10:55:21;;;;;;;26.53;14.30;;;8.10;99.50;;;;;;4990647;28;20209;-77
2021/03/09 10:57:47;;;;;;;17.75;12.77;;;7.90;98.50;;;;;;4985856;28;20878;-76
2021/03/09 11:00:17;;;;;;;19.30;11.43;;;8.20;98.30;;;;;;4975137;28;20208;-76
2021/03/09 11:02:44;;;;;;;21.13;13.10;;;8.00;97.90;;;;;;4990777;28;20682;-76
2021/03/09 11:05:12;;;;;;;25.33;14.30;;;7.80;98.10;;;;;;4990610;28;20303;-76
2021/03/09 11:07:39;;;;;;;17.77;11.68;;;8.00;97.90;;;;;;4990479;28;20220;-76
2021/03/09 11:10:07;;;;;;;21.90;13.77;;;7.90;97.70;;;;;;4990458;28;20300;-76
2021/03/09 11:12:33;;;;;;;21.73;14.05;;;8.00;97.40;;;;;;4990840;28;20279;-74
2021/03/09 11:14:59;;;;;;;19.90;11.57;;;8.10;97.00;;;;;;4981282;28;20312;-77
2021/03/09 11:17:27;;;;;;;19.90;12.63;;;7.90;96.70;;;;;;4972346;28;20476;-77
2021/03/09 11:19:53;;;;;;;20.20;13.80;;;8.30;96.50;;;;;;4973216;28;20464;-78
2021/03/09 11:22:20;;;;;;;19.17;13.30;;;8.10;96.80;;;;;;4973845;28;20241;-77
2021/03/09 11:24:46;;;;;;;17.03;9.80;;;8.30;97.10;;;;;;4994654;28;20243;-88
2021/03/09 11:27:13;;;;;;;17.55;11.40;;;8.20;96.40;;;;;;5000069;28;20563;-83
2021/03/09 11:29:40;;;;;;;21.30;13.60;;;8.10;95.90;;;;;;5000692;28;20212;-82
2021/03/09 11:32:07;;;;;;;20.00;11.60;;;8.40;96.20;;;;;;4993673;28;20426;-84
2021/03/09 11:34:35;;;;;;;22.30;12.90;;;8.20;95.70;;;;;;4999124;28;20307;-84
2021/03/09 11:37:01;;;;;;;24.13;13.30;;;8.50;96.00;;;;;;4997032;28;20567;-86
2021/03/09 11:39:28;;;;;;;22.63;13.33;;;8.40;95.50;;;;;;4998092;28;20447;-82
2021/03/09 11:41:55;;;;;;;20.27;14.10;;;8.20;95.70;;;;;;4995738;28;20545;-83
2021/03/09 11:44:22;;;;;;;19.70;13.57;;;8.30;96.20;;;;;;4997307;28;20774;-83
2021/03/09 11:46:49;;;;;;;14.10;8.85;;;8.30;96.30;;;;;;4997245;28;20463;-81
2021/03/09 11:49:16;;;;;;;18.95;11.25;;;8.80;95.30;;;;;;4979640;28;20233;-86
2021/03/09 11:51:43;;;;;;;20.67;14.00;;;8.70;94.70;;;;;;4978610;28;20219;-84
2021/03/09 11:54:12;;;;;;;14.90;9.20;;;8.70;95.10;;;;;;4979569;28;20556;-86
2021/03/09 11:56:39;;;;;;;21.47;13.87;;;8.80;95.10;;;;;;4975424;28;20491;-81
2021/03/09 11:59:05;;;;;;;12.20;9.38;;;8.40;95.30;;;;;;4988655;28;20475;-89
2021/03/09 12:01:31;;;;;;;13.40;10.10;;;8.40;95.10;;;;;;4996196;28;20212;-84
2021/03/09 12:03:58;;;;;;;16.70;10.57;;;8.60;94.60;;;;;;4997660;28;20474;-85
2021/03/09 12:06:24;;;;;;;18.63;11.63;;;8.80;94.60;;;;;;4996292;28;20471;-87
2021/03/09 12:08:51;;;;;;;14.25;10.10;;;8.80;94.30;;;;;;4994381;28;20456;-82
2021/03/09 12:11:19;;;;;;;12.80;9.85;;;8.70;93.50;;;;;;4994739;28;20321;-88
2021/03/09 12:13:46;;;;;;;16.93;11.63;;;8.80;93.10;;;;;;4994012;28;20235;-87
2021/03/09 12:16:13;;;;;;;15.88;10.70;;;8.90;93.10;;;;;;4994423;28;20550;-89
2021/03/09 12:18:48;;;;;;;18.20;11.07;;;9.00;92.90;;;;;;4999111;28;20212;-90
2021/03/09 12:21:15;;;;;;;13.50;10.20;;;9.10;92.90;;;;;;4992995;28;20454;-87
2021/03/09 12:23:41;;;;;;;16.30;12.00;;;8.60;92.40;;;;;;4993751;28;20216;-89
2021/03/09 12:26:08;;;;;;;17.08;10.95;;;8.90;92.30;;;;;;4993230;28;20589;-80
2021/03/09 12:28:35;;;;;;;18.70;12.63;;;8.80;92.70;;;;;;4985954;28;20236;-85
2021/03/09 12:31:02;;;;;;;15.90;10.47;;;8.80;92.70;;;;;;4990093;28;20426;-87
2021/03/09 12:33:28;;;;;;;18.17;10.40;;;8.60;92.60;;;;;;4996970;28;20538;-81
2021/03/09 12:35:55;;;;;;;15.50;10.53;;;8.90;92.70;;;;;;4990713;28;21033;-83
2021/03/09 12:38:21;;;;;;;19.63;11.13;;;9.00;92.30;;;;;;4974574;28;20467;-84
2021/03/09 12:40:47;;;;;;;16.40;10.97;;;9.10;92.10;;;;;;4976035;28;20453;-82
2021/03/09 12:43:14;;;;;;;21.67;11.87;;;8.80;91.70;;;;;;4990152;28;20837;-81
2021/03/09 12:45:41;;;;;;;14.70;10.73;;;9.10;91.50;;;;;;4992412;28;20471;-79
2021/03/09 12:48:08;;;;;;;13.77;10.13;;;9.00;91.70;;;;;;4977685;28;21023;-78
2021/03/09 12:50:34;;;;;;;12.47;8.20;;;8.80;91.80;;;;;;4981861;28;20430;-78